Time;durP1;ratioP1;P1;durP2;ratioP2;P2;SDS_P1;SDS_P2;PMS_P1;PMS_P2;Temp;Humidity;BMP_temperature;BMP_pressure;BME280_temperature;BME280_humidity;BME280_pressure;Samples;Min_cycle;Max_cycle;Signal;HPM_P1;HPM_P2
2022/02/01 00:00:44;;;;;;;;;67.67;50.67;;;;;3.05;73.18;98523.63;6278664;20;2882574;-44
2022/02/01 00:03:15;;;;;;;;;62.50;41.00;;;;;3.03;73.96;98522.88;6309971;20;2500345;-43
2022/02/01 00:13:35;;;;;;;;;54.00;41.50;;;;;2.80;74.17;98524.84;6312056;20;2865971;-43
2022/02/01 00:36:10;;;;;;;;;51.00;44.00;;;;;2.82;75.77;98525.66;6277446;20;2508729;-43
2022/02/01 00:38:47;;;;;;;;;68.33;45.00;;;;;2.95;75.18;98514.41;6280809;20;2882629;-43
2022/02/01 00:41:18;;;;;;;;;70.00;53.00;;;;;2.94;75.57;98523.31;6311070;20;2872272;-43
2022/02/01 00:43:47;;;;;;;;;67.00;47.50;;;;;2.86;75.20;98521.91;6277849;20;2870085;-43
2022/02/01 00:46:15;;;;;;;;;67.00;53.50;;;;;2.84;76.21;98525.56;6279238;20;2862764;-43
2022/02/01 00:48:45;;;;;;;;;71.33;54.00;;;;;2.91;75.87;98523.47;6281812;20;2876336;-43
2022/02/01 00:51:16;;;;;;;;;56.67;44.33;;;;;2.81;75.90;98528.34;6318084;20;2885745;-43
2022/02/01 00:53:45;;;;;;;;;70.00;50.00;;;;;2.91;75.68;98536.72;6315694;20;2864822;-43
2022/02/01 00:56:14;;;;;;;;;68.00;51.50;;;;;2.99;75.56;98534.56;6279737;20;2489871;-43
2022/02/01 00:58:45;;;;;;;;;65.00;49.00;;;;;3.32;74.55;98528.47;6285651;20;2863785;-43
2022/02/01 01:01:14;;;;;;;;;64.50;48.00;;;;;3.14;75.13;98523.19;6280920;20;2499202;-43
2022/02/01 01:03:45;;;;;;;;;63.50;45.50;;;;;3.16;75.27;98523.97;6281159;20;2521078;-43
2022/02/01 01:06:15;;;;;;;;;62.00;48.50;;;;;2.96;75.91;98519.66;6283589;20;2866900;-43
2022/02/01 01:08:44;;;;;;;;;55.00;45.00;;;;;3.03;76.05;98517.56;6285452;20;2861330;-43
2022/02/01 01:11:14;;;;;;;;;54.50;43.00;;;;;2.76;76.37;98525.06;6283008;20;2878480;-43
2022/02/01 01:43:55;;;;;;;;;39.50;35.50;;;;;3.15;77.03;98516.09;6315481;20;2847167;-41
2022/02/01 01:54:31;;;;;;;;;66.67;48.00;;;;;2.63;77.84;98499.19;6283066;20;2886759;-42
2022/02/01 01:56:59;;;;;;;;;47.00;43.00;;;;;2.60;77.10;98509.06;6314055;20;2508685;-42
2022/02/01 01:59:27;;;;;;;;;56.50;45.00;;;;;2.46;77.90;98506.22;6281496;20;2489863;-43
2022/02/01 02:01:56;;;;;;;;;61.00;46.50;;;;;2.17;78.27;98514.59;6284424;20;2849313;-42
2022/02/01 02:04:25;;;;;;;;;59.00;43.50;;;;;1.90;77.91;98534.41;6283884;20;2873271;-43
2022/02/01 02:06:54;;;;;;;;;47.50;41.00;;;;;1.05;81.73;98535.41;6283242;20;2843015;-41
2022/02/01 02:09:22;;;;;;;;;39.50;33.50;;;;;1.90;79.93;98537.06;6282068;20;2500269;-42
2022/02/01 02:11:58;;;;;;;;;51.67;40.67;;;;;2.02;78.43;98538.25;6282715;20;3627700;-43
2022/02/01 02:14:30;;;;;;;;;35.50;30.00;;;;;2.29;78.34;98538.78;6314053;20;2851451;-43
2022/02/01 02:17:02;;;;;;;;;41.00;36.50;;;;;2.26;77.96;98537.13;6284224;20;2864834;-43
2022/02/01 02:19:33;;;;;;;;;43.00;39.50;;;;;2.31;78.29;98532.47;6285339;20;2859654;-43
2022/02/01 02:22:06;;;;;;;;;44.00;36.00;;;;;2.68;77.18;98543.13;6278734;20;2506528;-42
2022/02/01 02:24:41;;;;;;;;;48.00;36.67;;;;;2.70;77.30;98543.94;6282302;20;2879609;-49
2022/02/01 02:27:10;;;;;;;;;59.00;45.50;;;;;2.85;77.48;98546.69;6312522;20;2885687;-46
2022/02/01 02:29:39;;;;;;;;;59.00;44.50;;;;;2.95;78.79;98540.94;6282729;20;2857639;-48
2022/02/01 02:32:08;;;;;;;;;55.33;37.33;;;;;3.15;78.18;98538.16;6283147;20;2879619;-42
2022/02/01 02:34:38;;;;;;;;;63.67;43.33;;;;;3.12;78.57;98546.28;6313769;20;3637780;-43
2022/02/01 02:37:14;;;;;;;;;32.33;17.33;;;;;3.20;78.21;98538.78;6315584;20;3596097;-41
2022/02/01 02:39:58;;;;;;;;;53.00;41.00;;;;;3.34;78.47;98537.22;6281821;20;2880544;-42
2022/02/01 02:45:03;;;;;;;;;43.00;38.50;;;;;3.35;78.79;98546.94;6314826;20;2869164;-41
2022/02/01 02:45:16;;;;;;;;;53.00;41.00;;;;;3.39;78.92;98546.66;6279447;20;3615860;-46
2022/02/01 02:47:45;;;;;;;;;45.00;33.50;;;;;3.51;79.17;98550.50;6309598;20;2860649;-45
2022/02/01 02:50:14;;;;;;;;;46.00;33.00;;;;;3.59;79.36;98547.47;6285112;20;2870191;-46
2022/02/01 02:52:43;;;;;;;;;50.33;36.00;;;;;3.70;79.03;98556.56;6282947;20;3634620;-45
2022/02/01 02:55:13;;;;;;;;;47.33;37.33;;;;;3.66;77.66;98560.34;6309889;20;2869005;-48
2022/02/01 02:57:42;;;;;;;;;57.00;43.00;;;;;3.42;78.36;98557.16;6311626;20;2864570;-46
2022/02/01 03:00:10;;;;;;;;;55.00;47.00;;;;;3.35;78.99;98558.38;6280601;20;2508702;-46
2022/02/01 03:02:38;;;;;;;;;63.50;50.00;;;;;3.16;79.14;98570.84;6279397;20;2489920;-47
2022/02/01 03:05:07;;;;;;;;;54.50;45.00;;;;;3.47;78.79;98573.66;6281989;20;2855394;-47
2022/02/01 03:07:36;;;;;;;;;55.50;45.50;;;;;3.24;79.44;98574.84;6276352;20;2847239;-46
2022/02/01 03:10:06;;;;;;;;;65.67;48.67;;;;;3.49;78.06;98578.91;6280018;20;2864894;-47
2022/02/01 03:13:10;;;;;;;;;58.33;44.33;;;;;3.24;78.64;98587.25;6307081;20;2878952;-48
2022/02/01 03:20:48;;;;;;;;;63.33;46.00;;;;;3.26;79.03;98583.56;6279694;20;2861762;-48
2022/02/01 03:23:17;;;;;;;;;55.00;46.00;;;;;3.08;80.31;98589.78;6314046;20;2863875;-44
2022/02/01 03:25:45;;;;;;;;;59.00;46.50;;;;;2.79;81.18;98588.53;6280257;20;2496113;-45
2022/02/01 03:28:15;;;;;;;;;63.33;45.00;;;;;2.83;81.51;98593.63;6281597;20;3637757;-43
2022/02/01 03:30:44;;;;;;;;;63.00;49.00;;;;;2.92;80.89;98584.34;6312558;20;2871168;-43
2022/02/01 03:33:13;;;;;;;;;65.00;42.67;;;;;2.67;81.69;98592.63;6282986;20;3633564;-43
2022/02/01 03:35:42;;;;;;;;;45.00;37.50;;;;;2.81;81.37;98592.81;6314201;20;2860697;-44
2022/02/01 03:38:11;;;;;;;;;61.00;46.00;;;;;2.68;81.45;98599.63;6278288;20;2865856;-44
2022/02/01 03:40:39;;;;;;;;;60.00;46.00;;;;;2.54;81.63;98597.63;6279367;20;2508602;-44
2022/02/01 03:43:08;;;;;;;;;45.50;41.50;;;;;2.29;82.86;98600.56;6279917;20;2864867;-43
2022/02/01 03:45:36;;;;;;;;;55.00;38.00;;;;;2.58;82.44;98596.59;6277387;20;2500266;-43
2022/02/01 03:48:05;;;;;;;;;46.50;41.00;;;;;2.77;82.10;98601.03;6277924;20;2873168;-44
2022/02/01 03:50:34;;;;;;;;;46.00;39.00;;;;;2.54;81.88;98600.28;6279933;20;2865883;-43
2022/02/01 03:53:03;;;;;;;;;49.67;37.33;;;;;2.49;83.70;98604.09;6283121;20;2885696;-43
2022/02/01 03:55:32;;;;;;;;;56.00;46.00;;;;;2.53;83.47;98613.63;6310435;20;2866286;-43
2022/02/01 03:58:01;;;;;;;;;55.50;44.50;;;;;2.70;83.17;98613.69;6282200;20;2849316;-43
2022/02/01 04:00:31;;;;;;;;;63.00;47.00;;;;;2.58;83.79;98614.25;6280726;20;2864862;-44
2022/02/01 04:03:04;;;;;;;;;60.67;42.00;;;;;2.17;83.67;98611.72;6281780;20;2905723;-42
2022/02/01 04:05:34;;;;;;;;;52.50;43.00;;;;;2.06;83.42;98604.25;6312463;20;2859625;-42
2022/02/01 04:08:02;;;;;;;;;59.00;44.50;;;;;2.06;82.28;98598.09;6277989;20;2849215;-42
2022/02/01 04:10:30;;;;;;;;;69.00;53.50;;;;;2.03;82.75;98593.81;6275502;20;2498171;-41
2022/02/01 04:13:01;;;;;;;;;47.50;43.00;;;;;1.81;83.21;98600.94;6279523;20;2871181;-41
2022/02/01 04:15:30;;;;;;;;;66.50;50.50;;;;;1.32;86.13;98601.28;6279158;20;2871184;-41
2022/02/01 04:17:58;;;;;;;;;48.50;42.00;;;;;1.64;84.70;98599.03;6276029;20;2500299;-41
2022/02/01 04:20:27;;;;;;;;;50.50;42.00;;;;;1.68;83.92;98608.56;6279905;20;2877362;-41
2022/02/01 04:22:56;;;;;;;;;63.50;48.50;;;;;1.79;83.28;98616.91;6279719;20;2871098;-41
2022/02/01 04:25:25;;;;;;;;;56.00;46.00;;;;;1.81;82.93;98625.63;6278443;20;2853555;-41
2022/02/01 04:27:53;;;;;;;;;47.00;42.00;;;;;1.69;83.60;98631.47;6279913;20;2874223;-41
2022/02/01 04:30:22;;;;;;;;;53.00;44.00;;;;;1.65;83.11;98637.78;6282422;20;2500273;-41
2022/02/01 04:32:54;;;;;;;;;45.50;34.50;;;;;1.76;85.67;98651.41;6277537;20;2500399;-41
2022/02/01 04:35:29;;;;;;;;;51.00;42.00;;;;;1.89;86.08;98657.91;6280639;20;2864916;-41
2022/02/01 04:37:57;;;;;;;;;79.00;60.50;;;;;2.05;85.91;98658.09;6276255;20;2500290;-41
2022/02/01 04:40:33;;;;;;;;;61.00;49.50;;;;;2.18;85.22;98666.38;6280047;20;2859781;-41
2022/02/01 04:43:05;;;;;;;;;66.50;51.50;;;;;2.34;85.19;98672.75;6277589;20;2497128;-41
2022/02/01 04:45:35;;;;;;;;;60.33;43.33;;;;;2.74;84.35;98670.94;6280031;20;3645091;-41
2022/02/01 04:48:04;;;;;;;;;46.50;41.50;;;;;2.55;84.09;98662.09;6309906;20;2863169;-42
2022/02/01 04:50:33;;;;;;;;;61.00;48.00;;;;;2.52;84.71;98663.09;6279947;20;2857679;-41
2022/02/01 04:53:02;;;;;;;;;61.67;42.33;;;;;2.70;83.81;98664.03;6281686;20;2875228;-42
2022/02/01 04:58:09;;;;;;;;;63.50;50.00;;;;;2.88;82.82;98677.38;6280144;20;2854450;-41
2022/02/01 05:00:39;;;;;;;;;51.33;38.67;;;;;2.70;83.08;98679.94;6278423;20;2874416;-42
2022/02/01 05:03:09;;;;;;;;;62.00;41.33;;;;;2.63;83.00;98689.09;6312041;20;2893238;-41
2022/02/01 05:05:38;;;;;;;;;51.00;44.50;;;;;2.58;83.39;98699.03;6311613;20;2854446;-41
2022/02/01 05:08:11;;;;;;;;;57.67;42.67;;;;;2.62;83.76;98697.97;6278676;20;2884784;-41
2022/02/01 05:10:41;;;;;;;;;51.50;43.00;;;;;2.75;83.25;98696.50;6307863;20;2493039;-40
2022/02/01 05:15:51;;;;;;;;;52.00;39.33;;;;;2.50;84.46;98688.81;6280399;20;2868008;-41
2022/02/01 05:18:24;;;;;;;;;46.50;38.50;;;;;2.79;83.26;98699.84;6310596;20;2867052;-41
2022/02/01 05:20:58;;;;;;;;;39.00;35.00;;;;;2.79;83.94;98700.72;6278045;20;2500255;-41
2022/02/01 05:23:26;;;;;;;;;45.50;37.50;;;;;2.64;84.56;98706.72;6278762;20;2864909;-42
2022/02/01 05:25:54;;;;;;;;;38.00;28.00;;;;;2.84;83.76;98709.34;6279895;20;2853359;-42
2022/02/01 05:28:22;;;;;;;;;37.50;31.50;;;;;2.81;83.81;98720.06;6275059;20;2500266;-43
2022/02/01 05:30:53;;;;;;;;;56.00;44.00;;;;;2.67;84.96;98726.94;6277404;20;2872288;-41
2022/02/01 05:33:22;;;;;;;;;44.67;36.67;;;;;2.83;84.29;98728.81;6278494;20;3605573;-41
2022/02/01 05:35:52;;;;;;;;;60.67;43.33;;;;;2.95;83.95;98727.41;6282177;20;2882610;-41
2022/02/01 05:38:22;;;;;;;;;58.67;44.33;;;;;2.96;83.77;98741.50;6316650;20;2871110;-39
2022/02/01 05:40:50;;;;;;;;;36.00;29.50;;;;;3.01;84.09;98752.78;6313332;20;2500424;-41
2022/02/01 05:43:23;;;;;;;;;39.00;35.00;;;;;3.29;82.56;98747.91;6280449;20;2500284;-41
2022/02/01 05:45:56;;;;;;;;;43.50;34.00;;;;;3.02;83.21;98743.88;6285229;20;2857530;-42
2022/02/01 05:48:26;;;;;;;;;37.33;28.33;;;;;3.07;83.46;98740.06;6282643;20;3594102;-43
2022/02/01 05:50:56;;;;;;;;;36.00;35.00;;;;;3.22;83.40;98751.78;6280068;20;2500266;-41
2022/02/01 05:53:25;;;;;;;;;45.00;26.50;;;;;3.17;83.74;98745.81;6281969;20;2874213;-41
2022/02/01 05:55:54;;;;;;;;;47.50;36.50;;;;;3.32;82.69;98756.63;6283404;20;2866924;-41
2022/02/01 05:58:23;;;;;;;;;39.50;30.00;;;;;3.15;83.63;98758.28;6281943;20;2852478;-45
2022/02/01 06:00:51;;;;;;;;;40.00;36.00;;;;;2.88;85.02;98757.75;6278411;20;2500388;-44
2022/02/01 06:03:20;;;;;;;;;41.00;34.00;;;;;3.03;83.54;98757.06;6278460;20;2500261;-44
2022/02/01 06:05:49;;;;;;;;;41.50;32.50;;;;;3.07;83.47;98755.13;6281732;20;2875301;-43
2022/02/01 06:08:18;;;;;;;;;30.33;28.67;;;;;3.01;83.60;98766.03;6282966;20;3575243;-44
2022/02/01 06:10:47;;;;;;;;;51.00;37.00;;;;;2.90;84.48;98765.63;6279399;20;2887764;-46
2022/02/01 06:13:17;;;;;;;;;50.00;37.33;;;;;2.93;84.17;98770.81;6283570;20;3629418;-42
2022/02/01 06:15:45;;;;;;;;;48.67;42.67;;;;;2.65;85.12;98777.34;6313949;20;3601421;-41
2022/02/01 06:18:15;;;;;;;;;59.00;42.67;;;;;2.71;84.67;98777.06;6283704;20;3632594;-41
2022/02/01 06:20:44;;;;;;;;;40.50;35.00;;;;;2.69;84.83;98788.69;6311227;20;2500321;-41
2022/02/01 06:23:18;;;;;;;;;43.00;42.00;;;;;2.55;85.31;98802.50;6284707;20;2855509;-43
2022/02/01 06:25:48;;;;;;;;;65.50;50.50;;;;;2.42;85.76;98807.47;6283867;20;2871075;-41
2022/02/01 06:28:28;;;;;;;;;71.00;51.50;;;;;2.76;85.07;98817.47;6279901;20;2470031;-41
2022/02/01 06:30:57;;;;;;;;;62.00;48.00;;;;;2.69;85.11;98826.63;6282031;20;2859609;-42
2022/02/01 06:33:26;;;;;;;;;50.00;39.00;;;;;2.47;86.15;98831.13;6283547;20;2870077;-42
2022/02/01 06:35:55;;;;;;;;;75.00;62.00;;;;;2.80;85.00;98840.28;6282316;20;2866995;-41
2022/02/01 06:38:24;;;;;;;;;41.67;33.33;;;;;2.92;84.91;98851.25;6282680;20;3586717;-41
2022/02/01 06:40:52;;;;;;;;;44.00;42.00;;;;;2.81;84.88;98857.88;6278926;20;2500258;-41
2022/02/01 06:43:21;;;;;;;;;51.00;38.00;;;;;2.91;84.94;98853.06;6279781;20;2500254;-41
2022/02/01 06:45:49;;;;;;;;;39.00;29.00;;;;;3.07;83.92;98853.25;6281779;20;2805460;-42
2022/02/01 06:48:17;;;;;;;;;55.00;43.00;;;;;3.07;83.60;98864.69;6278276;20;2500262;-42
2022/02/01 06:50:47;;;;;;;;;60.00;45.50;;;;;2.95;84.28;98869.69;6282344;20;2861718;-41
2022/02/01 06:53:18;;;;;;;;;42.00;36.50;;;;;2.86;84.45;98882.41;6282324;20;2853358;-41
2022/02/01 06:56:30;;;;;;;;;44.50;34.00;;;;;3.18;84.01;98892.53;6282138;20;2866990;-42
2022/02/01 06:58:39;;;;;;;;;22.67;22.67;;;;;3.23;83.03;98886.09;6280728;20;3575309;-41
2022/02/01 07:01:08;;;;;;;;;42.50;37.00;;;;;3.02;83.60;98897.66;6277808;20;2500302;-41
2022/02/01 07:03:36;;;;;;;;;40.00;32.50;;;;;3.02;84.82;98898.53;6278227;20;2500339;-41
2022/02/01 07:06:11;;;;;;;;;57.00;44.00;;;;;3.04;83.85;98901.13;6280560;20;2849211;-41
2022/02/01 07:08:44;;;;;;;;;51.50;41.00;;;;;3.21;83.76;98903.91;6282833;20;2882592;-43
2022/02/01 07:11:18;;;;;;;;;49.00;37.50;;;;;3.48;83.36;98912.41;6278257;20;2859623;-42
2022/02/01 07:13:49;;;;;;;;;48.00;38.00;;;;;3.64;81.81;98923.19;6281326;20;2878493;-42
2022/02/01 07:16:21;;;;;;;;;47.67;39.67;;;;;3.74;82.16;98924.50;6308964;20;2876340;-41
2022/02/01 07:18:56;;;;;;;;;61.33;44.33;;;;;3.76;81.95;98924.41;6313800;20;3624194;-41
2022/02/01 07:21:28;;;;;;;;;49.67;41.33;;;;;3.81;82.23;98929.50;6311903;20;2876355;-50
2022/02/01 07:24:00;;;;;;;;;55.33;40.67;;;;;3.96;80.70;98934.13;6313902;20;2887840;-48
2022/02/01 07:26:28;;;;;;;;;42.00;38.50;;;;;3.79;80.68;98936.69;6314180;20;2830486;-50
2022/02/01 07:28:57;;;;;;;;;49.00;40.00;;;;;4.03;80.65;98932.00;6280873;20;2874199;-49
2022/02/01 07:31:27;;;;;;;;;62.00;42.00;;;;;4.01;80.77;98937.41;6277598;20;3638764;-51
2022/02/01 07:33:56;;;;;;;;;47.50;40.50;;;;;4.32;80.33;98951.91;6311332;20;2867041;-51
2022/02/01 07:36:26;;;;;;;;;46.00;40.33;;;;;4.44;79.24;98939.81;6282782;20;2873294;-48
2022/02/01 07:38:55;;;;;;;;;53.50;41.50;;;;;4.62;78.53;98946.91;6312466;20;2875311;-50
2022/02/01 07:41:24;;;;;;;;;57.67;41.00;;;;;4.47;79.00;98951.16;6282278;20;3643180;-49
2022/02/01 07:43:54;;;;;;;;;65.33;49.00;;;;;4.47;78.96;98955.63;6310996;20;2872505;-49
2022/02/01 07:46:23;;;;;;;;;50.33;41.67;;;;;4.38;80.07;98968.41;6313195;20;2864883;-47
2022/02/01 07:48:53;;;;;;;;;58.33;41.33;;;;;4.32;79.96;98974.03;6311968;20;3629395;-47
2022/02/01 07:51:23;;;;;;;;;53.67;40.67;;;;;4.34;80.16;98971.28;6311165;20;2862873;-48
2022/02/01 07:53:51;;;;;;;;;37.00;32.50;;;;;4.37;80.28;98965.81;6308286;20;2859652;-50
2022/02/01 07:56:20;;;;;;;;;62.00;45.50;;;;;4.41;79.53;98964.75;6280658;20;2856297;-49
2022/02/01 07:58:50;;;;;;;;;47.00;34.33;;;;;4.51;78.96;98974.00;6280396;20;2875748;-48
2022/02/01 08:01:20;;;;;;;;;51.33;42.00;;;;;4.57;79.34;98972.84;6313095;20;2875252;-49
2022/02/01 08:03:48;;;;;;;;;61.00;43.50;;;;;4.67;78.01;98982.09;6306607;20;2494023;-48
2022/02/01 08:06:17;;;;;;;;;43.00;35.00;;;;;4.69;78.35;98984.69;6279595;20;2853412;-47
2022/02/01 08:08:45;;;;;;;;;48.00;43.50;;;;;4.84;78.13;98990.13;6280285;20;2848186;-48
2022/02/01 08:11:16;;;;;;;;;58.50;45.50;;;;;5.50;76.35;98986.78;6280330;20;2855488;-50
2022/02/01 08:19:24;;;;;;;;;39.50;34.00;;;;;5.65;75.26;98984.22;6309432;20;2854408;-49
2022/02/01 08:21:54;;;;;;;;;41.00;32.50;;;;;5.54;74.95;98989.25;6279081;20;2851287;-49
2022/02/01 08:24:23;;;;;;;;;53.00;42.50;;;;;5.60;74.98;98992.44;6279376;20;2871122;-52
2022/02/01 08:26:52;;;;;;;;;45.00;34.00;;;;;6.03;73.88;98994.66;6280901;20;3626301;-51
2022/02/01 08:29:22;;;;;;;;;44.33;34.00;;;;;5.56;74.47;98992.72;6310449;20;2883642;-49
2022/02/01 08:31:51;;;;;;;;;31.50;26.00;;;;;5.88;73.84;98999.84;6311747;20;2858615;-49
2022/02/01 08:34:20;;;;;;;;;36.00;27.50;;;;;5.46;73.92;99008.28;6278584;20;2854412;-51
2022/02/01 08:36:49;;;;;;;;;42.00;35.33;;;;;5.64;73.95;99011.81;6281272;20;2866914;-50
2022/02/01 08:39:18;;;;;;;;;35.50;29.50;;;;;5.89;72.78;99009.56;6311531;20;2857535;-49
2022/02/01 08:41:47;;;;;;;;;36.00;27.00;;;;;5.99;73.18;99009.97;6281134;20;2865894;-50
2022/02/01 08:44:16;;;;;;;;;33.50;28.00;;;;;5.35;73.22;99018.66;6276874;20;2500258;-48
2022/02/01 08:46:45;;;;;;;;;34.00;25.50;;;;;5.68;73.56;99016.88;6278218;20;2500260;-49
2022/02/01 08:49:13;;;;;;;;;28.50;25.00;;;;;5.35;73.09;99030.16;6278093;20;2500266;-49
2022/02/01 08:51:43;;;;;;;;;38.50;26.00;;;;;4.95;73.89;99053.44;6282630;20;2853405;-51
2022/02/01 08:54:21;;;;;;;;;23.00;13.00;;;;;5.12;74.69;99052.59;6280157;20;2821121;-50
2022/02/01 08:59:35;;;;;;;;;53.00;41.50;;;;;5.70;71.55;99060.28;6281303;20;2870068;-49
2022/02/01 09:02:06;;;;;;;;;23.00;19.67;;;;;5.53;71.69;99060.31;6278350;20;3574369;-50
2022/02/01 09:04:35;;;;;;;;;29.00;21.67;;;;;5.52;71.55;99063.88;6276163;20;3571112;-51
2022/02/01 09:07:04;;;;;;;;;21.50;20.00;;;;;5.40;71.67;99070.72;6312144;20;2818994;-48
2022/02/01 09:09:33;;;;;;;;;30.50;22.00;;;;;5.77;70.60;99074.16;6278874;20;2857582;-48
2022/02/01 09:12:03;;;;;;;;;22.33;20.00;;;;;5.88;70.87;99077.09;6283258;20;3560680;-49
2022/02/01 09:14:32;;;;;;;;;25.00;17.00;;;;;5.46;71.38;99081.03;6313614;20;2500395;-53
2022/02/01 09:17:01;;;;;;;;;27.50;23.00;;;;;5.54;71.27;99095.78;6283527;20;2834642;-47
2022/02/01 09:19:31;;;;;;;;;29.00;18.33;;;;;5.65;70.78;99088.09;6284221;20;3573225;-52
2022/02/01 09:22:01;;;;;;;;;27.00;22.00;;;;;5.37;71.21;99084.19;6314017;20;2500276;-51
2022/02/01 09:24:30;;;;;;;;;20.50;17.50;;;;;5.61;70.36;99091.84;6285139;20;2829530;-51
2022/02/01 09:26:59;;;;;;;;;39.00;28.00;;;;;5.40;71.73;99094.66;6283152;20;2498188;-51
2022/02/01 09:29:28;;;;;;;;;29.67;20.67;;;;;5.54;70.72;99099.28;6284428;20;3582507;-52
2022/02/01 09:31:57;;;;;;;;;21.67;17.67;;;;;5.67;69.50;99094.22;6285373;20;3559730;-53
2022/02/01 09:34:29;;;;;;;;;42.33;34.67;;;;;5.92;68.52;99100.00;6315461;20;3607563;-54
2022/02/01 09:37:00;;;;;;;;;27.50;22.00;;;;;5.67;68.12;99083.56;6315646;20;2500264;-50
2022/02/01 09:39:28;;;;;;;;;32.00;25.00;;;;;5.67;68.62;99086.22;6282472;20;2851347;-48
2022/02/01 09:41:59;;;;;;;;;25.00;23.00;;;;;6.64;66.56;99084.63;6285563;20;2830441;-50
2022/02/01 09:44:28;;;;;;;;;28.00;24.50;;;;;6.28;67.14;99095.50;6284463;20;2852450;-50
2022/02/01 09:46:56;;;;;;;;;27.50;22.00;;;;;6.01;65.77;99092.50;6281566;20;2494028;-50
2022/02/01 09:49:25;;;;;;;;;31.00;25.00;;;;;6.47;65.98;99100.69;6284854;20;2858615;-50
2022/02/01 09:51:58;;;;;;;;;48.33;36.67;;;;;6.99;64.39;99100.47;6283207;20;2875436;-49
2022/02/01 09:54:30;;;;;;;;;25.67;25.00;;;;;6.71;64.16;99088.66;6315284;20;3579462;-50
2022/02/01 09:57:06;;;;;;;;;28.00;25.50;;;;;7.03;63.45;99075.34;6282274;20;2500308;-50
2022/02/01 09:59:35;;;;;;;;;30.00;23.50;;;;;6.85;63.53;99076.41;6284305;20;2844020;-52
2022/02/01 10:02:13;;;;;;;;;30.50;25.50;;;;;6.90;62.95;99083.19;6284634;20;2852366;-49
2022/02/01 10:04:41;;;;;;;;;32.00;24.00;;;;;6.71;63.43;99083.34;6279414;20;2496149;-49
2022/02/01 10:07:14;;;;;;;;;31.00;23.50;;;;;6.63;63.88;99088.22;6282904;20;2848168;-50
2022/02/01 10:10:01;;;;;;;;;35.00;26.00;;;;;6.53;63.19;99089.69;6281196;20;2864452;-49
2022/02/01 10:12:36;;;;;;;;;17.67;17.67;;;;;6.51;64.37;99092.44;6284395;20;3538800;-49
2022/02/01 10:15:10;;;;;;;;;26.33;21.33;;;;;6.47;62.93;99090.03;6280838;20;3571086;-50
2022/02/01 10:17:47;;;;;;;;;25.00;23.00;;;;;6.00;63.84;99083.63;6278733;20;2496233;-49
2022/02/01 10:20:18;;;;;;;;;38.00;28.50;;;;;6.68;63.12;99082.66;6285422;20;2848190;-50
2022/02/01 10:22:47;;;;;;;;;37.50;28.00;;;;;6.27;63.41;99078.66;6284163;20;2865886;-47
2022/02/01 10:25:29;;;;;;;;;34.50;27.00;;;;;6.48;63.43;99081.97;6279028;20;2849303;-48
2022/02/01 10:28:02;;;;;;;;;30.33;21.00;;;;;6.31;63.88;99090.00;6282737;20;3597162;-50
2022/02/01 10:30:50;;;;;;;;;25.00;21.00;;;;;5.87;65.31;99094.06;6281761;20;2823169;-49
2022/02/01 10:33:54;;;;;;;;;25.33;21.00;;;;;5.44;65.90;99088.22;6282996;20;3567054;-50
2022/02/01 10:36:21;;;;;;;;;39.00;34.00;;;;;6.53;63.64;99095.00;6314665;20;2860071;-51
2022/02/01 10:38:49;;;;;;;;;20.50;19.50;;;;;6.14;64.18;99097.09;6314882;20;2500257;-51
2022/02/01 10:41:17;;;;;;;;;21.00;18.50;;;;;5.94;64.83;99103.47;6283094;20;2500248;-50
2022/02/01 10:43:52;;;;;;;;;30.00;26.00;;;;;6.19;64.51;99104.84;6284069;20;2856687;-50
2022/02/01 10:46:23;;;;;;;;;33.00;29.00;;;;;6.40;64.89;99109.97;6283788;20;2850368;-47
2022/02/01 10:48:53;;;;;;;;;47.67;37.67;;;;;6.37;63.73;99101.22;6282617;20;2881527;-50
2022/02/01 10:51:26;;;;;;;;;54.50;39.50;;;;;6.46;63.96;99093.66;6314312;20;2861773;-49
2022/02/01 10:53:56;;;;;;;;;38.50;30.00;;;;;6.44;63.45;99090.19;6280925;20;2863005;-48
2022/02/01 10:56:26;;;;;;;;;27.00;23.50;;;;;6.49;62.94;99088.16;6283296;20;2832640;-48
2022/02/01 10:58:55;;;;;;;;;22.33;19.67;;;;;6.44;63.05;99109.72;6283141;20;3561690;-49
2022/02/01 11:01:26;;;;;;;;;28.00;25.00;;;;;6.74;62.93;99112.53;6282108;20;2850254;-49
2022/02/01 11:03:59;;;;;;;;;35.00;28.00;;;;;6.96;61.98;99124.69;6279301;20;2857778;-48
2022/02/01 11:06:34;;;;;;;;;42.67;30.67;;;;;6.77;62.01;99114.19;6281859;20;3634621;-48
2022/02/01 11:09:02;;;;;;;;;34.50;19.50;;;;;6.52;62.45;99109.31;6312166;20;2849354;-48
2022/02/01 11:11:31;;;;;;;;;33.50;27.00;;;;;6.73;62.57;99110.78;6278748;20;2859641;-49
2022/02/01 11:14:01;;;;;;;;;65.33;47.33;;;;;6.80;60.82;99109.53;6279635;20;2876585;-51
2022/02/01 11:16:29;;;;;;;;;15.33;14.33;;;;;6.33;60.85;99115.63;6309943;20;2805506;-47
2022/02/01 11:19:07;;;;;;;;;22.33;14.00;;;;;6.51;60.22;99110.25;6314232;20;3548207;-50
2022/02/01 11:21:54;;;;;;;;;17.67;14.33;;;;;6.46;59.28;99114.97;6312830;20;3556491;-49
2022/02/01 11:24:33;;;;;;;;;18.00;6.50;;;;;6.46;59.79;99113.16;6311601;20;2782533;-49
2022/02/01 11:27:17;;;;;;;;;19.67;13.33;;;;;6.31;59.27;99106.84;6282638;20;2835743;-48
2022/02/01 11:32:36;;;;;;;;;22.33;14.67;;;;;6.44;59.34;99103.53;6281364;20;3557566;-49
2022/02/01 11:35:21;;;;;;;;;23.00;17.50;;;;;6.53;60.06;99108.34;6312361;20;2823183;-50
2022/02/01 11:38:21;;;;;;;;;18.00;11.00;;;;;6.55;59.76;99101.13;6282349;20;2798266;-47
2022/02/01 11:41:06;;;;;;;;;23.50;22.50;;;;;6.70;57.91;99102.97;6282085;20;2832563;-50
2022/02/01 11:43:42;;;;;;;;;39.00;30.00;;;;;6.62;58.17;99104.34;6283783;20;2850309;-51
2022/02/01 11:46:20;;;;;;;;;27.00;20.00;;;;;6.31;59.64;99101.50;6279655;20;3562809;-50
2022/02/01 11:48:52;;;;;;;;;37.33;30.33;;;;;6.19;59.26;99101.31;6281690;20;2855964;-49
2022/02/01 11:51:41;;;;;;;;;52.00;43.00;;;;;6.36;59.50;99098.59;6312585;20;2856519;-47
2022/02/01 11:54:11;;;;;;;;;52.00;42.00;;;;;6.09;60.08;99096.47;6279830;20;2877359;-47
2022/02/01 11:56:41;;;;;;;;;33.00;27.00;;;;;6.54;58.45;99096.75;6310904;20;2833605;-50
2022/02/01 11:59:14;;;;;;;;;48.00;39.00;;;;;6.49;58.34;99090.81;6282977;20;2743015;-51
2022/02/01 12:01:43;;;;;;;;;38.50;36.50;;;;;6.67;57.92;99096.94;6277411;20;2858652;-49
2022/02/01 12:04:18;;;;;;;;;58.00;45.00;;;;;6.64;58.47;99089.97;6280330;20;2871158;-52
2022/02/01 12:07:07;;;;;;;;;48.33;39.00;;;;;6.80;58.01;99093.50;6277480;20;2876806;-50
2022/02/01 12:09:40;;;;;;;;;39.00;31.50;;;;;6.91;57.45;99089.38;6313325;20;2859670;-49
2022/02/01 12:12:11;;;;;;;;;43.00;31.33;;;;;7.14;57.12;99085.41;6278763;20;3629478;-50
2022/02/01 12:14:40;;;;;;;;;36.00;29.00;;;;;7.46;54.88;99087.06;6308726;20;2858613;-49
2022/02/01 12:17:09;;;;;;;;;21.67;18.00;;;;;7.03;54.44;99078.03;6279792;20;3552356;-49
2022/02/01 12:19:50;;;;;;;;;33.50;28.00;;;;;7.31;53.92;99068.41;6274345;20;2500254;-49
2022/02/01 12:23:07;;;;;;;;;7.00;0.00;;;;;6.87;55.11;99074.47;6285908;20;2731687;-49
2022/02/01 12:25:36;;;;;;;;;25.50;24.00;;;;;7.53;53.87;99071.56;6310020;20;2500259;-49
2022/02/01 12:28:21;;;;;;;;;26.50;23.00;;;;;7.82;52.78;99063.59;6279810;20;2835727;-49
2022/02/01 12:31:07;;;;;;;;;22.00;16.00;;;;;8.07;51.68;99068.31;6280197;20;3552323;-49
2022/02/01 12:33:47;;;;;;;;;19.00;12.00;;;;;7.45;50.24;99069.34;6312354;20;3546197;-47
2022/02/01 12:36:21;;;;;;;;;18.00;16.00;;;;;7.18;50.53;99077.13;6310934;20;3556604;-46
2022/02/01 12:39:31;;;;;;;;;17.20;15.00;;;;;7.53;49.48;99071.56;6336450;20;2822144;-49
2022/02/01 12:42:28;;;;;;;;;12.00;11.50;;;;;7.83;48.05;99070.69;6280141;20;2782539;-48
2022/02/01 12:47:40;;;;;;;;;20.50;19.50;;;;;7.13;47.38;99079.19;6287267;20;2834625;-47
2022/02/01 12:50:15;;;;;;;;;46.00;34.50;;;;;6.98;47.68;99080.94;6287939;20;2876322;-50
2022/02/01 12:52:43;;;;;;;;;17.67;15.33;;;;;7.02;46.91;99078.97;6285329;20;3562821;-47
2022/02/01 12:55:18;;;;;;;;;84.33;67.67;;;;;7.30;47.84;99077.38;6282355;20;3639836;-52
2022/02/01 12:58:07;;;;;;;;;18.00;17.00;;;;;6.99;47.92;99077.31;6286223;20;2816922;-48
2022/02/01 13:00:35;;;;;;;;;14.00;10.00;;;;;7.49;47.91;99078.03;6286495;20;2779578;-47